Time;durP1;ratioP1;P1;durP2;ratioP2;P2;SDS_P1;SDS_P2;PMS_P1;PMS_P2;Temp;Humidity;BMP_temperature;BMP_pressure;BME280_temperature;BME280_humidity;BME280_pressure;Samples;Min_cycle;Max_cycle;Signal;HPM_P1;HPM_P2
2022/10/19 00:04:19;;;;;;;31.17;10.73;;;;;;;5.99;100.00;102606.97;10450351;28;20312;-67
2022/10/19 00:09:21;;;;;;;27.80;10.10;;;;;;;5.93;100.00;102598.28;10453646;28;20088;-67
2022/10/19 00:14:24;;;;;;;;;;;;;;;5.93;100.00;102593.13;10453088;28;20098;-66
2022/10/19 00:19:28;;;;;;;29.30;9.48;;;;;;;5.90;100.00;102589.66;10452914;28;19982;-67
2022/10/19 00:24:30;;;;;;;32.00;11.93;;;;;;;5.89;100.00;102593.94;10452514;28;20087;-67
2022/10/19 00:29:33;;;;;;;38.30;12.95;;;;;;;5.92;100.00;102586.19;10459153;28;20064;-67
2022/10/19 00:34:35;;;;;;;37.25;14.80;;;;;;;5.91;100.00;102584.47;10457767;28;20093;-68
2022/10/19 00:39:36;;;;;;;44.43;15.70;;;;;;;5.89;100.00;102578.41;10459655;28;20538;-67
2022/10/19 00:45:02;;;;;;;45.17;15.68;;;;;;;5.86;100.00;102575.81;10460164;28;20053;-67
2022/10/19 00:50:05;;;;;;;39.22;15.75;;;;;;;5.86;100.00;102587.91;10458956;28;20060;-68
2022/10/19 00:55:10;;;;;;;48.28;15.25;;;;;;;5.66;100.00;102589.53;10459573;28;20045;-67
2022/10/19 01:00:14;;;;;;;42.72;14.80;;;;;;;5.61;100.00;102588.63;10459030;28;20095;-66
2022/10/19 01:05:17;;;;;;;41.38;15.45;;;;;;;5.60;100.00;102592.06;10456080;28;20497;-67
2022/10/19 01:10:28;;;;;;;38.83;13.65;;;;;;;5.76;100.00;102579.22;10459094;28;20087;-67
2022/10/19 01:15:40;;;;;;;28.98;13.40;;;;;;;5.76;100.00;102587.88;10458251;28;20045;-67
2022/10/19 01:21:20;;;;;;;27.53;12.43;;;;;;;5.70;100.00;102576.56;10458434;28;20083;-67
2022/10/19 01:26:52;;;;;;;37.22;12.27;;;;;;;5.67;100.00;102583.47;10457454;28;20393;-67
2022/10/19 01:32:06;;;;;;;36.73;13.07;;;;;;;5.62;100.00;102573.94;10456727;28;20052;-68
2022/10/19 01:37:21;;;;;;;34.92;12.65;;;;;;;5.76;100.00;102569.72;10457727;28;20299;-66
2022/10/19 01:42:32;;;;;;;35.65;12.60;;;;;;;5.74;100.00;102570.53;10456795;28;20149;-67
2022/10/19 01:47:43;;;;;;;36.17;13.50;;;;;;;5.76;100.00;102576.63;10457142;28;20083;-67
2022/10/19 01:52:48;;;;;;;37.33;14.60;;;;;;;5.75;100.00;102574.91;10456906;28;20049;-67
2022/10/19 01:57:59;;;;;;;44.47;14.68;;;;;;;5.62;100.00;102573.94;10456625;28;20057;-66
2022/10/19 02:03:06;;;;;;;38.40;14.57;;;;;;;5.74;100.00;102558.47;10453759;28;20086;-67
2022/10/19 02:08:15;;;;;;;40.58;15.55;;;;;;;5.70;100.00;102550.66;10456471;28;20053;-67
2022/10/19 02:13:19;;;;;;;37.15;14.30;;;;;;;5.54;100.00;102542.81;10455826;28;20107;-66
2022/10/19 02:18:30;;;;;;;45.28;15.00;;;;;;;5.52;100.00;102534.19;10455651;28;20084;-67
2022/10/19 02:23:32;;;;;;;40.78;15.45;;;;;;;5.52;100.00;102523.81;10455436;28;20526;-67
2022/10/19 02:28:35;;;;;;;44.00;15.43;;;;;;;5.43;100.00;102531.53;10455274;28;20110;-67
2022/10/19 02:33:38;;;;;;;37.22;14.68;;;;;;;5.39;100.00;102515.97;10453448;28;20045;-67
2022/10/19 02:38:41;;;;;;;31.83;12.65;;;;;;;5.25;100.00;102518.47;10455315;28;20076;-67
2022/10/19 02:43:49;;;;;;;33.53;13.60;;;;;;;5.19;100.00;102514.94;10454795;28;20044;-68
2022/10/19 02:48:55;;;;;;;38.78;13.27;;;;;;;5.14;100.00;102505.44;10454348;28;20137;-67
2022/10/19 02:53:56;;;;;;;34.22;13.68;;;;;;;5.26;100.00;102508.97;10454949;28;20048;-67
2022/10/19 02:58:58;;;;;;;31.73;12.82;;;;;;;5.22;100.00;102512.41;10454276;28;20053;-67
2022/10/19 03:04:01;;;;;;;31.13;12.13;;;;;;;5.22;100.00;102513.28;10489815;28;20067;-67
2022/10/19 03:09:03;;;;;;;29.80;12.05;;;;;;;5.20;100.00;102506.34;10495308;28;20098;-66
2022/10/19 03:14:05;;;;;;;35.40;12.27;;;;;;;5.13;100.00;102508.88;10495127;28;20098;-66
2022/10/19 03:19:10;;;;;;;33.92;12.23;;;;;;;5.03;100.00;102507.06;10495174;28;20045;-67
2022/10/19 03:24:12;;;;;;;28.10;11.13;;;;;;;4.89;100.00;102520.78;10495200;28;20496;-67
2022/10/19 03:29:14;;;;;;;;;;;;;;;4.99;100.00;102513.09;10495906;28;20102;-68
2022/10/19 03:34:17;;;;;;;29.55;12.02;;;;;;;4.87;100.00;102506.09;10492985;28;19959;-67
2022/10/19 03:39:18;;;;;;;44.50;17.00;;;;;;;4.75;100.00;102506.84;10494548;28;20090;-67
2022/10/19 03:44:20;;;;;;;43.70;15.03;;;;;;;4.72;100.00;102514.59;10495061;28;20074;-68
2022/10/19 03:49:23;;;;;;;42.67;15.48;;;;;;;4.77;100.00;102507.75;10494467;28;20079;-68
2022/10/19 03:54:25;;;;;;;43.58;14.73;;;;;;;4.77;100.00;102510.34;10494818;28;20117;-67
2022/10/19 03:59:27;;;;;;;33.83;13.90;;;;;;;4.69;100.00;102509.41;10494465;28;20070;-67
2022/10/19 04:04:30;;;;;;;33.17;12.73;;;;;;;4.50;100.00;102516.97;10498119;28;20114;-67
2022/10/19 04:09:31;;;;;;;30.20;12.55;;;;;;;4.59;100.00;102524.81;10502182;28;20056;-68
2022/10/19 04:14:33;;;;;;;38.70;12.57;;;;;;;4.57;100.00;102516.19;10502420;28;20045;-67
2022/10/19 04:19:36;;;;;;;33.40;10.90;;;;;;;4.59;100.00;102514.47;10501759;28;20580;-67
2022/10/19 04:24:38;;;;;;;36.42;12.45;;;;;;;4.64;100.00;102504.19;10501425;28;20064;-67
2022/10/19 04:29:41;;;;;;;40.50;13.37;;;;;;;4.70;100.00;102511.13;10501350;28;20073;-67
2022/10/19 04:34:44;;;;;;;36.42;13.73;;;;;;;4.55;100.00;102504.09;10499484;28;20314;-66
2022/10/19 04:39:46;;;;;;;49.08;17.05;;;;;;;4.66;100.00;102499.03;10500848;28;20074;-67
2022/10/19 04:44:47;;;;;;;49.53;17.37;;;;;;;4.64;100.00;102502.47;10500426;28;20082;-67
2022/10/19 04:49:52;;;;;;;39.80;15.33;;;;;;;4.54;100.00;102497.19;10500321;28;20045;-68
2022/10/19 04:54:53;;;;;;;41.03;15.10;;;;;;;4.52;100.00;102504.94;10500231;28;20105;-68
2022/10/19 04:59:56;;;;;;;37.80;14.37;;;;;;;4.54;100.00;102503.22;10499870;28;20401;-67
2022/10/19 05:04:59;;;;;;;46.25;14.20;;;;;;;4.46;100.00;102503.16;10497314;28;20086;-67
2022/10/19 05:10:01;;;;;;;34.92;13.18;;;;;;;4.54;100.00;102500.63;10499864;28;20053;-68
2022/10/19 05:15:04;;;;;;;32.83;12.38;;;;;;;4.49;100.00;102497.16;10499142;28;20059;-67
2022/10/19 05:20:10;;;;;;;;;;;;;;;4.47;100.00;102491.09;10500385;28;20063;-67
2022/10/19 05:25:11;;;;;;;33.92;11.45;;;;;;;4.31;100.00;102500.41;10499446;28;19927;-68
2022/10/19 05:30:13;;;;;;;35.83;11.93;;;;;;;4.24;100.00;102483.97;10499562;28;20075;-67
2022/10/19 05:35:16;;;;;;;35.10;12.13;;;;;;;4.25;100.00;102472.78;10496578;28;20309;-68
2022/10/19 05:40:18;;;;;;;43.55;13.55;;;;;;;4.26;100.00;102474.50;10498537;28;20087;-68
2022/10/19 05:45:19;;;;;;;41.07;13.47;;;;;;;4.26;100.00;102471.94;10498671;28;20083;-66
2022/10/19 05:50:22;;;;;;;44.20;12.43;;;;;;;4.21;100.00;102471.03;10498453;28;20504;-66
2022/10/19 05:55:24;;;;;;;41.47;13.18;;;;;;;4.19;100.00;102472.72;10498066;28;20066;-66
2022/10/19 06:00:26;;;;;;;41.83;13.15;;;;;;;4.25;100.00;102465.03;10498131;28;20059;-66
2022/10/19 06:05:29;;;;;;;32.77;14.70;;;;;;;4.35;100.00;102466.84;10495116;28;20053;-66
2022/10/19 06:10:30;;;;;;;40.50;14.00;;;;;;;4.38;100.00;102464.28;10497150;28;20052;-65
2022/10/19 06:15:34;;;;;;;43.33;15.23;;;;;;;4.39;100.00;102452.25;10497174;28;20086;-66
2022/10/19 06:20:39;;;;;;;49.15;15.07;;;;;;;4.41;100.00;102454.84;10496867;28;20426;-66
2022/10/19 06:25:40;;;;;;;48.72;14.07;;;;;;;4.46;100.00;102455.75;10496222;28;20048;-66
2022/10/19 06:30:42;;;;;;;47.63;16.25;;;;;;;4.59;100.00;102449.81;10496986;28;20057;-66
2022/10/19 06:35:45;;;;;;;62.53;15.57;;;;;;;4.56;100.00;102465.34;10494850;28;20068;-66
2022/10/19 06:40:47;;;;;;;47.83;15.32;;;;;;;4.60;100.00;102461.91;10496086;28;20044;-65
2022/10/19 06:45:49;;;;;;;;;;;;;;;4.68;100.00;102468.88;10462233;28;20539;-66
2022/10/19 06:50:57;;;;;;;45.22;14.52;;;;;;;4.70;100.00;102461.97;10496216;28;19920;-67
2022/10/19 06:56:02;;;;;;;44.05;14.30;;;;;;;4.79;100.00;102462.06;10480392;28;20048;-66
2022/10/19 07:01:06;;;;;;;40.38;15.88;;;;;;;4.93;100.00;102464.75;10454271;28;20087;-67
2022/10/19 07:06:12;;;;;;;41.60;16.48;;;;;;;5.11;100.00;102466.63;10451804;28;20472;-66
2022/10/19 07:11:18;;;;;;;56.13;16.40;;;;;;;5.40;100.00;102463.31;10455526;28;20137;-66
2022/10/19 07:16:20;;;;;;;51.22;17.85;;;;;;;5.56;100.00;102466.00;10460722;28;20183;-67
2022/10/19 07:21:24;;;;;;;41.97;15.77;;;;;;;5.82;100.00;102467.84;10455659;28;20090;-65
2022/10/19 07:26:29;;;;;;;42.28;17.63;;;;;;;6.41;100.00;102467.16;10455232;28;20049;-66
2022/10/19 07:31:32;;;;;;;199.43;27.88;;;;;;;7.88;100.00;102470.34;10455626;28;20065;-66
2022/10/19 07:36:35;;;;;;;54.47;20.65;;;;;;;7.42;100.00;102469.66;10454474;28;20107;-65
2022/10/19 07:41:39;;;;;;;54.38;17.85;;;;;;;8.05;100.00;102453.78;10463728;28;20049;-64
2022/10/19 07:46:41;;;;;;;46.13;17.10;;;;;;;8.18;100.00;102460.63;10461539;28;20072;-64
2022/10/19 07:51:46;;;;;;;51.50;16.23;;;;;;;9.09;100.00;102447.78;10461435;28;20350;-65
2022/10/19 07:56:47;;;;;;;49.80;16.75;;;;;;;10.02;100.00;102448.38;10461451;28;20091;-65
2022/10/19 08:01:51;;;;;;;47.03;15.88;;;;;;;10.48;100.00;102452.94;10461118;28;20110;-65
2022/10/19 08:06:55;;;;;;;55.85;15.52;;;;;;;11.31;100.00;102442.75;10458574;28;20081;-65
2022/10/19 08:11:57;;;;;;;48.83;16.83;;;;;;;11.27;100.00;102443.72;10460502;28;20052;-67
2022/10/19 08:16:59;;;;;;;50.90;17.65;;;;;;;13.06;100.00;102443.97;10460393;28;20045;-64
2022/10/19 08:22:02;;;;;;;43.92;16.90;;;;;;;12.55;100.00;102438.28;10460591;28;20048;-65
2022/10/19 08:27:04;;;;;;;41.22;14.35;;;;;;;11.98;100.00;102430.03;10459991;28;20555;-65
2022/10/19 08:32:06;;;;;;;35.65;13.40;;;;;;;11.95;100.00;102409.16;10458365;28;20099;-64
2022/10/19 08:37:10;;;;;;;;;;;;;;;11.73;100.00;102417.50;10460132;28;20068;-65
2022/10/19 08:42:21;;;;;;;17.73;11.02;;;;;;;12.93;100.00;102406.75;10460131;28;20327;-65
2022/10/19 08:47:42;;;;;;;14.35;7.72;;;;;;;12.57;100.00;102397.22;10458590;28;20559;-64
2022/10/19 08:52:56;;;;;;;20.45;6.68;;;;;;;13.60;100.00;102394.41;10459340;28;20045;-63
2022/10/19 08:58:12;;;;;;;13.13;5.35;;;;;;;14.50;100.00;102397.66;10459492;28;20064;-62
2022/10/19 09:03:25;;;;;;;10.85;4.70;;;;;;;14.06;100.00;102393.84;10457263;28;20073;-65
2022/10/19 09:08:28;;;;;;;13.65;4.90;;;;;;;13.22;100.00;102381.50;10458263;28;20053;-65
2022/10/19 09:13:38;;;;;;;17.08;4.97;;;;;;;13.55;100.00;102384.94;10458281;28;20065;-62
2022/10/19 09:18:42;;;;;;;11.05;4.30;;;;;;;12.99;100.00;102382.13;10458416;28;20056;-64
2022/10/19 09:23:55;;;;;;;10.20;4.43;;;;;;;14.01;96.14;102401.00;10457896;28;20251;-64
2022/10/19 09:29:06;;;;;;;11.27;5.20;;;;;;;13.61;92.51;102403.97;10457867;28;20110;-64
2022/10/19 09:34:16;;;;;;;19.88;5.53;;;;;;;14.11;92.66;102402.44;10455258;28;20076;-65
2022/10/19 09:39:20;;;;;;;15.30;4.88;;;;;;;13.83;91.56;102398.06;10457544;28;20049;-64
2022/10/19 09:44:23;;;;;;;12.05;4.32;;;;;;;14.06;94.17;102382.50;10457336;28;20049;-65
2022/10/19 09:49:40;;;;;;;10.70;4.13;;;;;;;13.64;90.70;102382.03;10457377;28;20079;-64
2022/10/19 09:54:43;;;;;;;8.55;3.65;;;;;;;13.72;88.99;102368.69;10463599;28;20545;-64
2022/10/19 09:59:45;;;;;;;11.07;3.28;;;;;;;14.26;86.20;102364.31;10497612;28;20412;-65
2022/10/19 10:04:57;;;;;;;8.90;3.20;;;;;;;13.56;90.77;102358.69;10456220;28;20172;-66
2022/10/19 10:10:00;;;;;;;;;;;;;;;14.16;88.88;102353.25;10487145;28;20508;-72
2022/10/19 10:15:06;;;;;;;7.22;3.15;;;;;;;14.48;88.33;102365.34;10497336;28;19926;-71
2022/10/19 10:20:26;;;;;;;7.28;3.50;;;;;;;13.99;89.01;102361.69;10481742;28;20049;-75
2022/10/19 10:25:33;;;;;;;7.38;3.28;;;;;;;14.35;87.59;102363.16;10455363;28;20076;-72
2022/10/19 10:30:37;;;;;;;9.93;3.45;;;;;;;14.65;84.53;102347.19;10454058;28;20056;-70
2022/10/19 10:35:39;;;;;;;9.35;3.10;;;;;;;15.69;87.55;102350.38;10450965;28;20106;-72
2022/10/19 10:40:51;;;;;;;6.80;3.33;;;;;;;15.91;82.15;102340.75;10453728;28;20049;-72
2022/10/19 10:45:59;;;;;;;9.13;3.35;;;;;;;15.82;81.29;102331.44;10453416;28;20052;-64
2022/10/19 10:51:01;;;;;;;10.00;3.90;;;;;;;15.40;83.81;102333.97;10454132;28;20466;-65
2022/10/19 10:56:19;;;;;;;10.48;3.60;;;;;;;15.06;82.95;102322.13;10463782;28;20070;-66
2022/10/19 11:01:27;;;;;;;11.10;3.55;;;;;;;16.47;76.74;102318.22;10494945;28;20045;-65
2022/10/19 11:06:34;;;;;;;10.90;4.25;;;;;;;15.17;79.86;102308.56;10451174;28;20072;-66
2022/10/19 11:11:43;;;;;;;9.63;3.63;;;;;;;16.33;74.14;102302.16;10453066;28;20053;-64
2022/10/19 11:16:50;;;;;;;10.90;4.20;;;;;;;16.47;81.02;102304.19;10486140;28;20076;-64
2022/10/19 11:22:08;;;;;;;10.57;4.25;;;;;;;17.06;75.07;102287.50;10494738;28;20067;-64
2022/10/19 11:27:28;;;;;;;11.90;4.05;;;;;;;15.76;74.99;102279.06;10494130;28;20045;-64
2022/10/19 11:32:43;;;;;;;8.90;4.32;;;;;;;15.69;75.45;102268.81;10492108;28;20052;-63
2022/10/19 11:38:02;;;;;;;10.35;4.90;;;;;;;15.06;79.03;102256.41;10493911;28;20048;-65
2022/10/19 11:43:14;;;;;;;13.73;4.13;;;;;;;16.34;75.03;102238.00;10494862;28;20113;-63
2022/10/19 11:48:36;;;;;;;;;;;;;;;16.40;76.80;102221.06;10493985;28;20052;-65
2022/10/19 11:53:55;;;;;;;12.07;4.30;;;;;;;16.07;75.65;102193.53;10454492;28;19925;-64
2022/10/19 11:59:15;;;;;;;8.43;4.20;;;;;;;15.93;75.41;102200.25;10450623;28;20055;-64
2022/10/19 12:04:38;;;;;;;11.25;4.45;;;;;;;15.84;77.06;102183.06;10439641;28;20471;-66
2022/10/19 12:09:54;;;;;;;11.63;4.70;;;;;;;15.57;78.42;102174.59;10434159;28;20068;-64
2022/10/19 12:15:16;;;;;;;14.07;4.97;;;;;;;15.48;78.21;102175.84;10451926;28;20459;-65
2022/10/19 12:20:29;;;;;;;14.43;4.53;;;;;;;15.16;78.05;102178.03;10452488;28;20069;-66
2022/10/19 12:25:30;;;;;;;7.25;3.63;;;;;;;15.26;76.18;102165.34;10458074;28;20045;-65
2022/10/19 12:30:35;;;;;;;14.27;4.18;;;;;;;15.44;78.63;102161.09;10459904;28;20049;-65
2022/10/19 12:36:12;;;;;;;6.93;3.47;;;;;;;15.82;76.15;102148.06;10457586;28;20100;-65
2022/10/19 12:41:26;;;;;;;7.38;3.53;;;;;;;16.07;75.11;102135.59;10455811;28;20587;-65
2022/10/19 12:46:41;;;;;;;9.13;3.58;;;;;;;15.65;74.80;102126.88;10459257;28;20045;-64
2022/10/19 12:51:46;;;;;;;9.70;3.05;;;;;;;16.07;73.04;102114.53;10459096;28;20424;-66
2022/10/19 12:56:52;;;;;;;7.50;3.35;;;;;;;16.48;69.92;102121.44;10459031;28;20076;-65
2022/10/19 13:01:56;;;;;;;7.90;3.40;;;;;;;15.75;74.93;102109.78;10458890;28;20053;-64
2022/10/19 13:07:03;;;;;;;11.02;3.50;;;;;;;15.76;70.42;102113.25;10484523;28;20049;-64
2022/10/19 13:12:29;;;;;;;8.10;3.10;;;;;;;14.97;76.04;102106.94;10499667;28;20088;-65
2022/10/19 13:17:45;;;;;;;7.38;3.30;;;;;;;14.71;76.96;102103.56;10500265;28;20102;-64
2022/10/19 13:22:49;;;;;;;11.65;3.78;;;;;;;14.66;75.65;102099.34;10499502;28;20055;-64
2022/10/19 13:27:52;;;;;;;9.07;3.53;;;;;;;14.79;74.27;102086.59;10500381;28;20079;-67
2022/10/19 13:32:55;;;;;;;9.00;3.63;;;;;;;14.55;77.37;102081.38;10460741;28;20072;-65
2022/10/19 13:38:26;;;;;;;9.98;3.10;;;;;;;14.17;79.45;102073.22;10456313;28;20492;-66
2022/10/19 13:43:33;;;;;;;5.60;3.30;;;;;;;14.29;79.50;102059.63;10457691;28;20059;-66
2022/10/19 13:49:20;;;;;;;14.52;3.78;;;;;;;14.05;83.69;102045.66;10456899;28;20484;-66
2022/10/19 13:54:53;;;;;;;7.35;3.40;;;;;;;13.74;84.28;102041.56;10456618;28;20500;-66
2022/10/19 14:00:16;;;;;;;11.52;3.72;;;;;;;13.69;85.82;102033.84;10456656;28;20075;-64
2022/10/19 14:05:45;;;;;;;9.63;3.67;;;;;;;14.22;79.92;102031.91;10454248;28;20044;-71
2022/10/19 14:10:58;;;;;;;7.68;3.60;;;;;;;14.47;83.38;102030.06;10455974;28;20079;-72
2022/10/19 14:16:01;;;;;;;7.35;3.97;;;;;;;14.47;82.87;102024.81;10455793;28;20566;-71
2022/10/19 14:21:07;;;;;;;8.82;4.10;;;;;;;14.32;81.73;102029.75;10455737;28;20061;-72
2022/10/19 14:26:16;;;;;;;8.20;3.70;;;;;;;14.85;80.02;102029.47;10455593;28;20103;-72
2022/10/19 14:31:24;;;;;;;6.13;3.38;;;;;;;14.74;78.05;102035.09;10437792;28;20045;-72
2022/10/19 14:36:34;;;;;;;5.43;3.28;;;;;;;14.84;80.44;102030.34;10452241;28;20045;-72
2022/10/19 14:41:37;;;;;;;7.47;3.28;;;;;;;14.35;79.17;102016.53;10455073;28;20047;-73
2022/10/19 14:46:39;;;;;;;8.73;3.60;;;;;;;14.34;80.23;102004.28;10454195;28;20073;-72
2022/10/19 14:51:49;;;;;;;7.15;3.40;;;;;;;14.27;80.21;101992.34;10454106;28;20122;-72
2022/10/19 14:56:59;;;;;;;7.50;3.35;;;;;;;14.03;80.84;101995.00;10453981;28;20048;-73
2022/10/19 15:02:15;;;;;;;10.02;3.25;;;;;;;13.95;82.73;101989.19;10453053;28;20114;-72
2022/10/19 15:07:24;;;;;;;8.63;3.03;;;;;;;13.93;83.48;101991.03;10451809;28;20075;-72
2022/10/19 15:12:30;;;;;;;8.18;2.90;;;;;;;13.58;84.51;101973.94;10452228;28;20096;-73
2022/10/19 15:17:34;;;;;;;7.07;2.80;;;;;;;13.33;86.94;101972.19;10452407;28;20045;-71
2022/10/19 15:22:40;;;;;;;11.05;3.17;;;;;;;12.96;86.21;101961.22;10452403;28;20056;-72
2022/10/19 15:27:46;;;;;;;14.32;3.17;;;;;;;12.60;91.85;101965.03;10453270;28;20045;-73
2022/10/19 15:32:54;;;;;;;8.55;3.67;;;;;;;12.55;90.06;101953.88;10450773;28;20475;-72
2022/10/19 15:38:05;;;;;;;8.35;2.83;;;;;;;12.46;91.53;101946.31;10452847;28;20045;-73
2022/10/19 15:43:43;;;;;;;14.02;3.75;;;;;;;12.28;96.90;101938.16;10452798;28;20515;-73
2022/10/19 15:48:47;;;;;;;13.10;3.20;;;;;;;12.06;96.10;101914.44;10452747;28;20411;-73
2022/10/19 15:53:54;;;;;;;11.82;3.45;;;;;;;11.91;100.00;101916.56;10452865;28;20470;-74
2022/10/19 15:58:58;;;;;;;5.15;3.20;;;;;;;11.84;99.35;101913.31;10456988;28;20079;-72
2022/10/19 16:04:00;;;;;;;11.88;3.05;;;;;;;11.71;100.00;101909.34;10458568;28;20049;-73
2022/10/19 16:09:05;;;;;;;14.70;3.17;;;;;;;11.46;100.00;101892.63;10461035;28;20049;-72
2022/10/19 16:14:06;;;;;;;11.57;3.25;;;;;;;11.40;100.00;101890.19;10460817;28;20094;-73
2022/10/19 16:19:10;;;;;;;8.68;3.17;;;;;;;11.31;100.00;101888.72;10461065;28;20654;-72
2022/10/19 16:24:13;;;;;;;9.55;3.10;;;;;;;11.18;100.00;101892.56;10460454;28;20053;-71
2022/10/19 16:29:16;;;;;;;10.65;3.55;;;;;;;11.06;100.00;101889.41;10460593;28;20081;-71
2022/10/19 16:34:17;;;;;;;9.23;3.00;;;;;;;10.80;100.00;101874.44;10458064;28;20113;-71
2022/10/19 16:39:24;;;;;;;6.32;2.90;;;;;;;10.64;100.00;101869.63;10459600;28;20098;-72
2022/10/19 16:44:25;;;;;;;8.98;3.08;;;;;;;10.47;100.00;101857.00;10459563;28;20071;-70
2022/10/19 16:49:27;;;;;;;13.52;3.55;;;;;;;10.44;100.00;101846.66;10459216;28;20076;-70
2022/10/19 16:54:31;;;;;;;6.13;3.22;;;;;;;10.29;100.00;101840.03;10457781;28;20049;-71
2022/10/19 16:59:33;;;;;;;10.90;3.80;;;;;;;10.39;100.00;101843.28;10457543;28;20045;-71
2022/10/19 17:04:35;;;;;;;9.00;4.07;;;;;;;10.31;100.00;101844.31;10454711;28;20053;-70
2022/10/19 17:09:38;;;;;;;11.93;3.47;;;;;;;10.15;100.00;101838.66;10456718;28;20052;-70
2022/10/19 17:14:42;;;;;;;14.30;3.95;;;;;;;9.98;100.00;101831.22;10457282;28;20045;-70
2022/10/19 17:19:43;;;;;;;9.35;4.15;;;;;;;9.95;100.00;101826.09;10456999;28;20049;-71
2022/10/19 17:24:46;;;;;;;9.93;4.38;;;;;;;9.85;100.00;101825.44;10456836;28;20057;-68
2022/10/19 17:29:48;;;;;;;14.52;5.05;;;;;;;10.05;100.00;101822.38;10456412;28;20045;-66
2022/10/19 17:34:50;;;;;;;10.43;4.60;;;;;;;10.09;100.00;101822.31;10453590;28;20492;-66
2022/10/19 17:39:53;;;;;;;16.17;5.30;;;;;;;9.88;100.00;101819.31;10457025;28;20055;-67
2022/10/19 17:44:54;;;;;;;10.57;4.32;;;;;;;10.02;100.00;101819.84;10457976;28;20075;-69
2022/10/19 17:49:56;;;;;;;10.85;4.68;;;;;;;10.13;100.00;101827.38;10427599;28;20122;-68
2022/10/19 17:54:59;;;;;;;10.23;5.28;;;;;;;10.04;100.00;101832.84;10471130;28;20116;-68
2022/10/19 18:00:01;;;;;;;10.00;4.97;;;;;;;9.97;100.00;101844.31;10466709;28;20067;-67
2022/10/19 18:05:05;;;;;;;;;;;;;;;10.02;100.00;101838.09;10495825;28;20318;-67
2022/10/19 18:10:09;;;;;;;17.85;5.18;;;;;;;9.90;100.00;101833.16;10497129;28;19943;-67
2022/10/19 18:15:11;;;;;;;12.35;5.35;;;;;;;9.85;100.00;101825.44;10497370;28;20057;-69
2022/10/19 18:20:12;;;;;;;10.20;5.40;;;;;;;9.76;100.00;101808.25;10496210;28;20472;-69
2022/10/19 18:25:17;;;;;;;6.28;4.95;;;;;;;9.74;100.00;101802.25;10496168;28;20174;-71
2022/10/19 18:30:18;;;;;;;9.45;5.20;;;;;;;9.69;100.00;101811.94;10496351;28;20109;-70
2022/10/19 18:35:21;;;;;;;8.05;4.63;;;;;;;9.67;100.00;101813.72;10493879;28;20048;-70
2022/10/19 18:40:24;;;;;;;7.15;5.07;;;;;;;9.53;100.00;101804.47;10481805;28;20067;-70
2022/10/19 18:45:26;;;;;;;11.48;5.07;;;;;;;9.44;100.00;101802.03;10452938;28;20500;-70
2022/10/19 18:50:30;;;;;;;11.75;4.80;;;;;;;9.36;100.00;101784.00;10445841;28;20052;-71
2022/10/19 18:55:33;;;;;;;7.63;4.80;;;;;;;9.44;100.00;101778.59;10495067;28;20147;-69
2022/10/19 19:00:35;;;;;;;11.70;5.18;;;;;;;9.32;100.00;101773.66;10495533;28;20081;-70
2022/10/19 19:05:38;;;;;;;9.20;5.03;;;;;;;9.20;100.00;101770.44;10492973;28;20055;-70
2022/10/19 19:10:41;;;;;;;15.35;5.50;;;;;;;9.17;100.00;101749.66;10494346;28;20091;-71
2022/10/19 19:15:42;;;;;;;10.00;5.43;;;;;;;9.23;100.00;101749.53;10493739;28;20044;-69
2022/10/19 19:20:44;;;;;;;12.27;5.63;;;;;;;9.33;100.00;101744.13;10494153;28;20521;-71
2022/10/19 19:25:47;;;;;;;13.68;5.03;;;;;;;9.28;100.00;101726.84;10493761;28;20048;-69
2022/10/19 19:30:49;;;;;;;7.88;4.75;;;;;;;9.14;100.00;101724.56;10493871;28;20059;-72
2022/10/19 19:35:51;;;;;;;12.32;5.63;;;;;;;9.06;100.00;101708.25;10491088;28;20048;-70
2022/10/19 19:40:54;;;;;;;16.50;5.88;;;;;;;8.99;100.00;101698.84;10493978;28;20053;-70
2022/10/19 19:45:57;;;;;;;9.25;5.20;;;;;;;8.98;100.00;101695.41;10493687;28;20056;-71
2022/10/19 19:51:00;;;;;;;16.08;5.53;;;;;;;8.96;100.00;101678.13;10493155;28;20056;-71
2022/10/19 19:56:03;;;;;;;9.30;5.10;;;;;;;8.82;100.00;101678.38;10493175;28;20106;-71
2022/10/19 20:01:09;;;;;;;7.93;5.38;;;;;;;8.81;100.00;101674.09;10493357;28;20087;-71
2022/10/19 20:06:13;;;;;;;13.65;5.28;;;;;;;8.73;100.00;101667.28;10490438;28;20091;-69
2022/10/19 20:11:16;;;;;;;10.95;5.05;;;;;;;8.72;100.00;101642.16;10492749;28;20088;-71
2022/10/19 20:16:21;;;;;;;5.95;5.35;;;;;;;8.75;100.00;101634.28;10492795;28;20099;-70
2022/10/19 20:21:26;;;;;;;8.73;5.05;;;;;;;8.88;100.00;101636.63;10492664;28;20105;-70
2022/10/19 20:26:30;;;;;;;12.40;5.60;;;;;;;8.82;100.00;101634.13;10493446;28;20063;-70
2022/10/19 20:31:37;;;;;;;9.60;5.30;;;;;;;8.90;100.00;101637.47;10494036;28;20067;-70
2022/10/19 20:36:39;;;;;;;8.32;5.28;;;;;;;8.82;100.00;101626.34;10491717;28;20127;-72
2022/10/19 20:41:42;;;;;;;12.10;5.47;;;;;;;8.72;100.00;101631.75;10493362;28;20553;-72
2022/10/19 20:46:44;;;;;;;8.50;5.32;;;;;;;8.79;100.00;101639.44;10499563;28;20044;-71
2022/10/19 20:51:47;;;;;;;7.03;5.03;;;;;;;8.81;100.00;101627.22;10500594;28;20044;-72
2022/10/19 20:56:50;;;;;;;11.25;6.90;;;;;;;8.68;100.00;101634.44;10500941;28;20079;-71
2022/10/19 21:01:56;;;;;;;13.93;6.53;;;;;;;8.75;100.00;101623.00;10500484;28;20467;-71
2022/10/19 21:06:58;;;;;;;11.35;6.57;;;;;;;8.61;100.00;101612.91;10497603;28;20083;-72
2022/10/19 21:12:03;;;;;;;11.25;5.60;;;;;;;8.78;100.00;101611.69;10500131;28;20608;-71
2022/10/19 21:17:05;;;;;;;14.50;6.65;;;;;;;8.68;100.00;101621.44;10499745;28;20571;-69
2022/10/19 21:22:08;;;;;;;9.73;6.43;;;;;;;8.63;100.00;101618.97;10499729;28;20083;-71
2022/10/19 21:27:13;;;;;;;14.07;5.97;;;;;;;8.68;100.00;101609.28;10499372;28;20106;-71
2022/10/19 21:32:17;;;;;;;13.00;6.03;;;;;;;8.81;100.00;101609.88;10499161;28;20417;-71
2022/10/19 21:37:18;;;;;;;11.82;6.05;;;;;;;8.78;100.00;101596.94;10497816;28;20045;-70
2022/10/19 21:42:22;;;;;;;12.65;6.43;;;;;;;8.61;100.00;101605.09;10499135;28;20052;-69
2022/10/19 21:47:24;;;;;;;16.10;6.28;;;;;;;8.74;100.00;101596.16;10498566;28;20446;-69
2022/10/19 21:52:27;;;;;;;10.95;6.53;;;;;;;8.59;100.00;101578.28;10498357;28;20105;-69
2022/10/19 21:57:30;;;;;;;10.77;6.63;;;;;;;8.51;100.00;101565.41;10497064;28;20098;-69
2022/10/19 22:02:33;;;;;;;14.75;7.03;;;;;;;8.61;100.00;101566.06;10495690;28;20052;-71
2022/10/19 22:07:35;;;;;;;11.13;6.40;;;;;;;8.70;100.00;101568.50;10498178;28;20075;-71
2022/10/19 22:12:38;;;;;;;11.65;6.93;;;;;;;8.57;100.00;101556.63;10497671;28;20056;-71
2022/10/19 22:17:39;;;;;;;15.90;7.30;;;;;;;8.64;100.00;101547.81;10497104;28;20048;-70
2022/10/19 22:22:42;;;;;;;12.50;7.07;;;;;;;8.66;100.00;101530.44;10497116;28;20459;-70
2022/10/19 22:27:45;;;;;;;13.95;6.78;;;;;;;8.61;100.00;101525.31;10496760;28;20620;-70
2022/10/19 22:32:49;;;;;;;13.02;6.57;;;;;;;8.64;100.00;101521.78;10494735;28;20086;-70
2022/10/19 22:37:50;;;;;;;16.20;7.18;;;;;;;8.82;100.00;101514.41;10497101;28;20046;-69
2022/10/19 22:42:53;;;;;;;12.15;6.45;;;;;;;8.82;100.00;101509.22;10496535;28;20135;-70
2022/10/19 22:47:55;;;;;;;16.92;7.57;;;;;;;8.79;100.00;101504.94;10496303;28;20048;-71
2022/10/19 22:52:58;;;;;;;10.95;7.40;;;;;;;8.57;100.00;101494.19;10495919;28;20448;-69
2022/10/19 22:58:01;;;;;;;10.10;6.97;;;;;;;8.64;100.00;101490.56;10496370;28;20048;-70
2022/10/19 23:03:03;;;;;;;8.85;7.25;;;;;;;8.63;100.00;101491.47;10493728;28;20105;-71
2022/10/19 23:08:05;;;;;;;13.25;7.82;;;;;;;8.53;100.00;101476.91;10495168;28;20106;-71
2022/10/19 23:13:09;;;;;;;11.77;7.70;;;;;;;8.52;100.00;101470.00;10495392;28;20470;-71